sensor_id;sensor_type;location;lat;lon;timestamp;temperature;humidity
20174;DHT22;10246;50.620;7.232;2023-02-10T00:01:54;1.70;1.80
20174;DHT22;10246;50.620;7.232;2023-02-10T00:04:22;1.60;2.80
20174;DHT22;10246;50.620;7.232;2023-02-10T00:06:49;1.70;3.30
20174;DHT22;10246;50.620;7.232;2023-02-10T00:09:16;1.70;3.50
20174;DHT22;10246;50.620;7.232;2023-02-10T00:11:43;1.70;3.70
20174;DHT22;10246;50.620;7.232;2023-02-10T00:14:27;1.70;4.10
20174;DHT22;10246;50.620;7.232;2023-02-10T00:16:54;1.80;3.60
20174;DHT22;10246;50.620;7.232;2023-02-10T00:19:24;1.80;3.00
20174;DHT22;10246;50.620;7.232;2023-02-10T00:21:51;1.80;3.50
20174;DHT22;10246;50.620;7.232;2023-02-10T00:24:19;1.80;4.50
20174;DHT22;10246;50.620;7.232;2023-02-10T00:26:47;1.80;5.40
20174;DHT22;10246;50.620;7.232;2023-02-10T00:29:14;1.90;5.40
20174;DHT22;10246;50.620;7.232;2023-02-10T00:31:41;1.90;5.50
20174;DHT22;10246;50.620;7.232;2023-02-10T00:34:10;1.90;5.80
20174;DHT22;10246;50.620;7.232;2023-02-10T00:36:38;1.90;5.90
20174;DHT22;10246;50.620;7.232;2023-02-10T00:39:05;2.00;6.20
20174;DHT22;10246;50.620;7.232;2023-02-10T00:41:32;2.00;5.70
20174;DHT22;10246;50.620;7.232;2023-02-10T00:43:59;2.00;6.30
20174;DHT22;10246;50.620;7.232;2023-02-10T00:46:26;2.00;5.90
20174;DHT22;10246;50.620;7.232;2023-02-10T00:48:52;2.00;6.40
20174;DHT22;10246;50.620;7.232;2023-02-10T00:51:19;2.00;6.30
20174;DHT22;10246;50.620;7.232;2023-02-10T00:53:47;2.00;6.40
20174;DHT22;10246;50.620;7.232;2023-02-10T00:56:15;2.10;6.50
20174;DHT22;10246;50.620;7.232;2023-02-10T00:58:43;2.10;5.70
20174;DHT22;10246;50.620;7.232;2023-02-10T01:01:10;2.00;6.30
20174;DHT22;10246;50.620;7.232;2023-02-10T01:03:37;2.00;6.30
20174;DHT22;10246;50.620;7.232;2023-02-10T01:06:04;2.00;6.20
20174;DHT22;10246;50.620;7.232;2023-02-10T01:08:32;2.00;6.80
20174;DHT22;10246;50.620;7.232;2023-02-10T01:11:02;1.90;7.40
20174;DHT22;10246;50.620;7.232;2023-02-10T01:13:29;2.00;8.20
20174;DHT22;10246;50.620;7.232;2023-02-10T01:15:56;1.90;8.10
20174;DHT22;10246;50.620;7.232;2023-02-10T01:18:23;1.90;8.20
20174;DHT22;10246;50.620;7.232;2023-02-10T01:20:49;1.90;8.40
20174;DHT22;10246;50.620;7.232;2023-02-10T01:23:16;1.90;8.70
20174;DHT22;10246;50.620;7.232;2023-02-10T01:25:43;2.00;8.80
20174;DHT22;10246;50.620;7.232;2023-02-10T01:28:11;2.00;9.10
20174;DHT22;10246;50.620;7.232;2023-02-10T01:30:38;2.00;8.90
20174;DHT22;10246;50.620;7.232;2023-02-10T01:33:05;2.00;9.00
20174;DHT22;10246;50.620;7.232;2023-02-10T01:35:32;2.10;8.70
20174;DHT22;10246;50.620;7.232;2023-02-10T01:37:59;2.10;8.70
20174;DHT22;10246;50.620;7.232;2023-02-10T01:40:26;2.10;8.50
20174;DHT22;10246;50.620;7.232;2023-02-10T01:42:53;2.10;8.80
20174;DHT22;10246;50.620;7.232;2023-02-10T01:45:25;2.10;8.90
20174;DHT22;10246;50.620;7.232;2023-02-10T01:47:54;2.10;8.80
20174;DHT22;10246;50.620;7.232;2023-02-10T01:50:24;2.20;9.20
20174;DHT22;10246;50.620;7.232;2023-02-10T01:52:52;2.20;8.70
20174;DHT22;10246;50.620;7.232;2023-02-10T01:55:21;2.20;9.00
20174;DHT22;10246;50.620;7.232;2023-02-10T01:57:50;2.30;9.00
20174;DHT22;10246;50.620;7.232;2023-02-10T02:00:21;2.30;8.60
20174;DHT22;10246;50.620;7.232;2023-02-10T02:02:48;2.30;9.60
20174;DHT22;10246;50.620;7.232;2023-02-10T02:05:21;2.20;10.30
20174;DHT22;10246;50.620;7.232;2023-02-10T02:07:49;2.30;10.00
20174;DHT22;10246;50.620;7.232;2023-02-10T02:10:16;2.30;9.20
20174;DHT22;10246;50.620;7.232;2023-02-10T02:12:50;2.30;9.50
20174;DHT22;10246;50.620;7.232;2023-02-10T02:15:27;2.40;9.30
20174;DHT22;10246;50.620;7.232;2023-02-10T02:18:01;2.30;8.50
20174;DHT22;10246;50.620;7.232;2023-02-10T02:21:00;2.30;8.40
20174;DHT22;10246;50.620;7.232;2023-02-10T02:23:46;2.20;8.30
20174;DHT22;10246;50.620;7.232;2023-02-10T02:26:40;2.20;8.60
20174;DHT22;10246;50.620;7.232;2023-02-10T02:29:29;2.20;8.30
20174;DHT22;10246;50.620;7.232;2023-02-10T02:32:05;2.20;8.30
20174;DHT22;10246;50.620;7.232;2023-02-10T02:34:37;2.20;9.00
20174;DHT22;10246;50.620;7.232;2023-02-10T02:37:08;2.20;9.10
20174;DHT22;10246;50.620;7.232;2023-02-10T02:39:36;2.20;9.50
20174;DHT22;10246;50.620;7.232;2023-02-10T02:42:16;2.20;9.50
20174;DHT22;10246;50.620;7.232;2023-02-10T02:44:46;2.30;9.40
20174;DHT22;10246;50.620;7.232;2023-02-10T02:47:21;2.30;9.40
20174;DHT22;10246;50.620;7.232;2023-02-10T02:49:59;2.30;8.40
20174;DHT22;10246;50.620;7.232;2023-02-10T02:52:34;2.30;8.50
20174;DHT22;10246;50.620;7.232;2023-02-10T02:55:09;2.30;8.30
20174;DHT22;10246;50.620;7.232;2023-02-10T02:57:44;2.30;8.30
20174;DHT22;10246;50.620;7.232;2023-02-10T03:00:14;2.30;8.30
20174;DHT22;10246;50.620;7.232;2023-02-10T03:02:44;2.20;8.70
20174;DHT22;10246;50.620;7.232;2023-02-10T03:05:17;2.20;8.30
20174;DHT22;10246;50.620;7.232;2023-02-10T03:07:44;2.30;8.40
20174;DHT22;10246;50.620;7.232;2023-02-10T03:10:11;2.30;8.30
20174;DHT22;10246;50.620;7.232;2023-02-10T03:12:37;2.30;7.80
20174;DHT22;10246;50.620;7.232;2023-02-10T03:15:04;2.30;7.70
20174;DHT22;10246;50.620;7.232;2023-02-10T03:17:31;2.30;8.30
20174;DHT22;10246;50.620;7.232;2023-02-10T03:19:59;2.30;8.40
20174;DHT22;10246;50.620;7.232;2023-02-10T03:22:26;2.40;8.40
20174;DHT22;10246;50.620;7.232;2023-02-10T03:24:53;2.40;8.40
20174;DHT22;10246;50.620;7.232;2023-02-10T03:27:20;2.30;8.30
20174;DHT22;10246;50.620;7.232;2023-02-10T03:29:47;2.40;7.80
20174;DHT22;10246;50.620;7.232;2023-02-10T03:32:17;2.30;7.20
20174;DHT22;10246;50.620;7.232;2023-02-10T03:34:44;2.40;8.40
20174;DHT22;10246;50.620;7.232;2023-02-10T03:37:13;2.30;8.40
20174;DHT22;10246;50.620;7.232;2023-02-10T03:39:40;2.30;8.70
20174;DHT22;10246;50.620;7.232;2023-02-10T03:42:06;2.40;8.60
20174;DHT22;10246;50.620;7.232;2023-02-10T03:44:33;2.40;8.70
20174;DHT22;10246;50.620;7.232;2023-02-10T03:47:00;2.40;8.40
20174;DHT22;10246;50.620;7.232;2023-02-10T03:49:27;2.40;8.40
20174;DHT22;10246;50.620;7.232;2023-02-10T03:51:54;2.40;8.40
20174;DHT22;10246;50.620;7.232;2023-02-10T03:54:22;2.40;7.70
20174;DHT22;10246;50.620;7.232;2023-02-10T03:56:49;2.40;7.50
20174;DHT22;10246;50.620;7.232;2023-02-10T03:59:16;2.40;7.40
20174;DHT22;10246;50.620;7.232;2023-02-10T04:01:42;2.40;8.40
20174;DHT22;10246;50.620;7.232;2023-02-10T04:04:09;2.40;8.40
20174;DHT22;10246;50.620;7.232;2023-02-10T04:06:36;2.50;8.50
20174;DHT22;10246;50.620;7.232;2023-02-10T04:09:03;2.40;8.40
20174;DHT22;10246;50.620;7.232;2023-02-10T04:11:31;2.40;8.40
20174;DHT22;10246;50.620;7.232;2023-02-10T04:13:58;2.50;8.50
20174;DHT22;10246;50.620;7.232;2023-02-10T04:16:24;2.50;8.50
20174;DHT22;10246;50.620;7.232;2023-02-10T04:18:53;2.40;8.40
20174;DHT22;10246;50.620;7.232;2023-02-10T04:21:20;2.40;8.40
20174;DHT22;10246;50.620;7.232;2023-02-10T04:23:47;2.40;8.40
20174;DHT22;10246;50.620;7.232;2023-02-10T04:26:13;2.40;8.40
20174;DHT22;10246;50.620;7.232;2023-02-10T04:28:43;2.50;8.50
20174;DHT22;10246;50.620;7.232;2023-02-10T04:31:10;2.50;8.80
20174;DHT22;10246;50.620;7.232;2023-02-10T04:33:37;2.50;8.50
20174;DHT22;10246;50.620;7.232;2023-02-10T04:36:05;2.50;8.70
20174;DHT22;10246;50.620;7.232;2023-02-10T04:38:31;2.60;8.50
20174;DHT22;10246;50.620;7.232;2023-02-10T04:40:58;2.50;8.50
20174;DHT22;10246;50.620;7.232;2023-02-10T04:43:25;2.40;8.40
20174;DHT22;10246;50.620;7.232;2023-02-10T04:45:54;2.40;8.40
20174;DHT22;10246;50.620;7.232;2023-02-10T04:48:20;2.40;9.30
20174;DHT22;10246;50.620;7.232;2023-02-10T04:50:47;2.50;8.50
20174;DHT22;10246;50.620;7.232;2023-02-10T04:53:15;2.50;8.50
20174;DHT22;10246;50.620;7.232;2023-02-10T04:55:41;2.40;9.50
20174;DHT22;10246;50.620;7.232;2023-02-10T04:58:08;2.40;9.70
20174;DHT22;10246;50.620;7.232;2023-02-10T05:00:35;2.30;9.80
20174;DHT22;10246;50.620;7.232;2023-02-10T05:03:03;2.30;9.80
20174;DHT22;10246;50.620;7.232;2023-02-10T05:05:30;2.40;10.00
20174;DHT22;10246;50.620;7.232;2023-02-10T05:07:57;2.40;9.80
20174;DHT22;10246;50.620;7.232;2023-02-10T05:10:24;2.40;10.00
20174;DHT22;10246;50.620;7.232;2023-02-10T05:12:50;2.40;9.30
20174;DHT22;10246;50.620;7.232;2023-02-10T05:15:17;2.40;9.20
20174;DHT22;10246;50.620;7.232;2023-02-10T05:17:44;2.30;9.30
20174;DHT22;10246;50.620;7.232;2023-02-10T05:20:12;2.40;9.30
20174;DHT22;10246;50.620;7.232;2023-02-10T05:22:39;2.40;9.30
20174;DHT22;10246;50.620;7.232;2023-02-10T05:25:08;2.50;9.20
20174;DHT22;10246;50.620;7.232;2023-02-10T05:27:35;2.50;8.90
20174;DHT22;10246;50.620;7.232;2023-02-10T05:30:02;2.50;8.80
20174;DHT22;10246;50.620;7.232;2023-02-10T05:32:29;2.40;9.30
20174;DHT22;10246;50.620;7.232;2023-02-10T05:34:56;2.40;9.10
20174;DHT22;10246;50.620;7.232;2023-02-10T05:40:31;2.30;10.00
20174;DHT22;10246;50.620;7.232;2023-02-10T05:43:06;2.30;9.20
20174;DHT22;10246;50.620;7.232;2023-02-10T05:45:35;2.20;9.30
20174;DHT22;10246;50.620;7.232;2023-02-10T05:48:04;2.20;10.20
20174;DHT22;10246;50.620;7.232;2023-02-10T05:50:32;2.20;9.60
20174;DHT22;10246;50.620;7.232;2023-02-10T05:53:04;2.20;9.70
20174;DHT22;10246;50.620;7.232;2023-02-10T05:59:00;2.10;10.00
20174;DHT22;10246;50.620;7.232;2023-02-10T06:01:47;2.10;10.20
20174;DHT22;10246;50.620;7.232;2023-02-10T06:04:17;2.00;10.20
20174;DHT22;10246;50.620;7.232;2023-02-10T06:07:24;2.10;10.50
20174;DHT22;10246;50.620;7.232;2023-02-10T06:10:26;2.00;10.00
20174;DHT22;10246;50.620;7.232;2023-02-10T06:13:05;2.10;10.00
20174;DHT22;10246;50.620;7.232;2023-02-10T06:16:00;2.00;10.30
20174;DHT22;10246;50.620;7.232;2023-02-10T06:18:43;2.00;9.90
20174;DHT22;10246;50.620;7.232;2023-02-10T06:23:12;2.00;9.80
20174;DHT22;10246;50.620;7.232;2023-02-10T06:24:32;1.90;9.60
20174;DHT22;10246;50.620;7.232;2023-02-10T06:27:01;1.90;9.80
20174;DHT22;10246;50.620;7.232;2023-02-10T06:29:27;1.90;9.90
20174;DHT22;10246;50.620;7.232;2023-02-10T06:31:54;1.90;9.80
20174;DHT22;10246;50.620;7.232;2023-02-10T06:34:21;2.00;10.00
20174;DHT22;10246;50.620;7.232;2023-02-10T06:36:48;1.90;10.10
20174;DHT22;10246;50.620;7.232;2023-02-10T06:39:14;1.90;10.30
20174;DHT22;10246;50.620;7.232;2023-02-10T06:41:41;1.80;9.90
20174;DHT22;10246;50.620;7.232;2023-02-10T06:44:10;1.80;11.10
20174;DHT22;10246;50.620;7.232;2023-02-10T06:46:37;1.70;10.80
20174;DHT22;10246;50.620;7.232;2023-02-10T06:49:04;1.70;11.30
20174;DHT22;10246;50.620;7.232;2023-02-10T06:51:30;1.80;11.20
20174;DHT22;10246;50.620;7.232;2023-02-10T06:53:57;1.70;11.50
20174;DHT22;10246;50.620;7.232;2023-02-10T06:56:24;1.80;11.80
20174;DHT22;10246;50.620;7.232;2023-02-10T06:58:51;1.80;11.80
20174;DHT22;10246;50.620;7.232;2023-02-10T07:01:19;1.70;11.90
20174;DHT22;10246;50.620;7.232;2023-02-10T07:03:46;1.80;12.30
20174;DHT22;10246;50.620;7.232;2023-02-10T07:06:13;1.80;12.50
20174;DHT22;10246;50.620;7.232;2023-02-10T07:08:39;1.80;12.40
20174;DHT22;10246;50.620;7.232;2023-02-10T07:11:06;1.80;11.90
20174;DHT22;10246;50.620;7.232;2023-02-10T07:13:33;1.80;12.00
20174;DHT22;10246;50.620;7.232;2023-02-10T07:16:01;1.80;11.60
20174;DHT22;10246;50.620;7.232;2023-02-10T07:18:29;1.90;11.50
20174;DHT22;10246;50.620;7.232;2023-02-10T07:20:56;1.90;11.10
20174;DHT22;10246;50.620;7.232;2023-02-10T07:23:23;1.90;11.40
20174;DHT22;10246;50.620;7.232;2023-02-10T07:25:50;2.00;11.50
20174;DHT22;10246;50.620;7.232;2023-02-10T07:28:16;2.00;11.30
20174;DHT22;10246;50.620;7.232;2023-02-10T07:30:43;2.00;11.10
20174;DHT22;10246;50.620;7.232;2023-02-10T07:33:10;2.10;11.10
20174;DHT22;10246;50.620;7.232;2023-02-10T07:35:38;2.10;10.60
20174;DHT22;10246;50.620;7.232;2023-02-10T07:38:05;2.10;10.70
20174;DHT22;10246;50.620;7.232;2023-02-10T07:40:32;2.20;10.60
20174;DHT22;10246;50.620;7.232;2023-02-10T07:42:59;2.30;10.30
20174;DHT22;10246;50.620;7.232;2023-02-10T07:45:26;2.30;9.30
20174;DHT22;10246;50.620;7.232;2023-02-10T07:47:56;2.30;9.20
20174;DHT22;10246;50.620;7.232;2023-02-10T07:50:23;2.40;9.80
20174;DHT22;10246;50.620;7.232;2023-02-10T07:52:51;2.40;8.90
20174;DHT22;10246;50.620;7.232;2023-02-10T07:55:18;2.40;8.70
20174;DHT22;10246;50.620;7.232;2023-02-10T07:57:45;2.40;8.80
20174;DHT22;10246;50.620;7.232;2023-02-10T08:00:12;2.50;9.20
20174;DHT22;10246;50.620;7.232;2023-02-10T08:02:40;2.50;8.50
20174;DHT22;10246;50.620;7.232;2023-02-10T08:05:08;2.50;8.50
20174;DHT22;10246;50.620;7.232;2023-02-10T08:07:35;2.50;8.50
20174;DHT22;10246;50.620;7.232;2023-02-10T08:10:04;2.60;7.90
20174;DHT22;10246;50.620;7.232;2023-02-10T08:12:31;2.50;7.50
20174;DHT22;10246;50.620;7.232;2023-02-10T08:14:59;2.50;7.40
20174;DHT22;10246;50.620;7.232;2023-02-10T08:17:26;2.60;7.10
20174;DHT22;10246;50.620;7.232;2023-02-10T08:19:53;2.60;7.30
20174;DHT22;10246;50.620;7.232;2023-02-10T08:22:20;2.60;7.20
20174;DHT22;10246;50.620;7.232;2023-02-10T08:24:47;2.60;7.70
20174;DHT22;10246;50.620;7.232;2023-02-10T08:27:15;2.60;7.90
20174;DHT22;10246;50.620;7.232;2023-02-10T08:29:42;2.60;8.00
20174;DHT22;10246;50.620;7.232;2023-02-10T08:32:09;2.70;7.50
20174;DHT22;10246;50.620;7.232;2023-02-10T08:34:36;2.80;6.60
20174;DHT22;10246;50.620;7.232;2023-02-10T08:37:03;2.90;6.70
20174;DHT22;10246;50.620;7.232;2023-02-10T08:39:30;2.90;6.20
20174;DHT22;10246;50.620;7.232;2023-02-10T08:41:57;2.90;5.70
20174;DHT22;10246;50.620;7.232;2023-02-10T08:44:25;3.00;5.60
20174;DHT22;10246;50.620;7.232;2023-02-10T08:46:52;3.10;5.40
20174;DHT22;10246;50.620;7.232;2023-02-10T08:49:19;3.20;5.60
20174;DHT22;10246;50.620;7.232;2023-02-10T08:51:47;3.20;5.50
20174;DHT22;10246;50.620;7.232;2023-02-10T08:54:14;3.30;5.10
20174;DHT22;10246;50.620;7.232;2023-02-10T08:56:41;3.40;4.60
20174;DHT22;10246;50.620;7.232;2023-02-10T08:59:08;3.40;4.50
20174;DHT22;10246;50.620;7.232;2023-02-10T09:01:36;3.50;4.10
20174;DHT22;10246;50.620;7.232;2023-02-10T09:04:03;3.50;4.00
20174;DHT22;10246;50.620;7.232;2023-02-10T09:06:32;3.60;3.90
20174;DHT22;10246;50.620;7.232;2023-02-10T09:09:04;3.60;3.80
20174;DHT22;10246;50.620;7.232;2023-02-10T09:11:31;3.70;3.00
20174;DHT22;10246;50.620;7.232;2023-02-10T09:13:58;3.80;3.10
20174;DHT22;10246;50.620;7.232;2023-02-10T09:16:25;3.80;2.70
20174;DHT22;10246;50.620;7.232;2023-02-10T09:18:59;3.90;3.00
20174;DHT22;10246;50.620;7.232;2023-02-10T09:21:33;3.90;3.00
20174;DHT22;10246;50.620;7.232;2023-02-10T09:24:06;3.90;2.90
20174;DHT22;10246;50.620;7.232;2023-02-10T09:26:37;4.00;2.90
20174;DHT22;10246;50.620;7.232;2023-02-10T09:29:04;4.00;2.60
20174;DHT22;10246;50.620;7.232;2023-02-10T09:31:37;4.10;2.20
20174;DHT22;10246;50.620;7.232;2023-02-10T09:34:15;4.20;1.80
20174;DHT22;10246;50.620;7.232;2023-02-10T09:36:43;4.30;1.30
20174;DHT22;10246;50.620;7.232;2023-02-10T09:39:12;4.30;1.40
20174;DHT22;10246;50.620;7.232;2023-02-10T09:41:47;4.40;1.20
20174;DHT22;10246;50.620;7.232;2023-02-10T09:44:20;4.50;1.00
20174;DHT22;10246;50.620;7.232;2023-02-10T09:47:05;4.60;1.00
20174;DHT22;10246;50.620;7.232;2023-02-10T09:49:54;4.80;1.00
20174;DHT22;10246;50.620;7.232;2023-02-10T09:52:35;4.90;1.00
20174;DHT22;10246;50.620;7.232;2023-02-10T09:55:12;5.00;1.00
20174;DHT22;10246;50.620;7.232;2023-02-10T09:57:43;5.10;1.00
20174;DHT22;10246;50.620;7.232;2023-02-10T10:00:23;5.20;1.00
20174;DHT22;10246;50.620;7.232;2023-02-10T10:02:53;5.40;1.00
20174;DHT22;10246;50.620;7.232;2023-02-10T10:05:36;5.50;1.00
20174;DHT22;10246;50.620;7.232;2023-02-10T10:08:11;5.60;1.00
20174;DHT22;10246;50.620;7.232;2023-02-10T10:10:44;5.70;1.00
20174;DHT22;10246;50.620;7.232;2023-02-10T10:13:14;5.80;1.00
20174;DHT22;10246;50.620;7.232;2023-02-10T10:16:03;5.90;1.00
20174;DHT22;10246;50.620;7.232;2023-02-10T10:18:40;6.00;1.00
20174;DHT22;10246;50.620;7.232;2023-02-10T10:21:15;6.00;1.00
20174;DHT22;10246;50.620;7.232;2023-02-10T10:23:56;6.20;1.00
20174;DHT22;10246;50.620;7.232;2023-02-10T10:26:41;6.30;1.00
20174;DHT22;10246;50.620;7.232;2023-02-10T10:29:31;6.40;1.00
20174;DHT22;10246;50.620;7.232;2023-02-10T10:32:22;6.50;1.00
20174;DHT22;10246;50.620;7.232;2023-02-10T10:34:54;6.50;1.00
20174;DHT22;10246;50.620;7.232;2023-02-10T10:37:25;6.50;1.00
20174;DHT22;10246;50.620;7.232;2023-02-10T10:39:54;6.50;1.00
20174;DHT22;10246;50.620;7.232;2023-02-10T10:42:25;6.60;1.00
20174;DHT22;10246;50.620;7.232;2023-02-10T10:44:57;6.60;1.00
20174;DHT22;10246;50.620;7.232;2023-02-10T10:47:31;6.60;1.00
20174;DHT22;10246;50.620;7.232;2023-02-10T10:50:01;6.70;1.00
20174;DHT22;10246;50.620;7.232;2023-02-10T10:52:33;6.80;1.00
20174;DHT22;10246;50.620;7.232;2023-02-10T10:55:02;6.80;1.00
20174;DHT22;10246;50.620;7.232;2023-02-10T10:57:29;6.90;1.00
20174;DHT22;10246;50.620;7.232;2023-02-10T11:00:04;6.90;1.00
20174;DHT22;10246;50.620;7.232;2023-02-10T11:02:36;6.90;1.00
20174;DHT22;10246;50.620;7.232;2023-02-10T11:05:03;6.90;1.00
20174;DHT22;10246;50.620;7.232;2023-02-10T11:07:33;6.90;1.00
20174;DHT22;10246;50.620;7.232;2023-02-10T11:10:00;7.00;1.00
20174;DHT22;10246;50.620;7.232;2023-02-10T11:12:31;7.10;1.00
20174;DHT22;10246;50.620;7.232;2023-02-10T11:15:00;7.30;1.00
20174;DHT22;10246;50.620;7.232;2023-02-10T11:17:32;7.30;1.00
20174;DHT22;10246;50.620;7.232;2023-02-10T11:20:03;7.30;1.00
20174;DHT22;10246;50.620;7.232;2023-02-10T11:22:32;7.40;1.00
20174;DHT22;10246;50.620;7.232;2023-02-10T11:25:00;7.30;1.00
20174;DHT22;10246;50.620;7.232;2023-02-10T11:27:27;7.40;1.00
20174;DHT22;10246;50.620;7.232;2023-02-10T11:29:56;7.40;1.00
20174;DHT22;10246;50.620;7.232;2023-02-10T11:32:25;7.40;1.00
20174;DHT22;10246;50.620;7.232;2023-02-10T11:34:53;7.40;1.00
20174;DHT22;10246;50.620;7.232;2023-02-10T11:37:23;7.40;1.00
20174;DHT22;10246;50.620;7.232;2023-02-10T11:39:54;7.50;1.00
20174;DHT22;10246;50.620;7.232;2023-02-10T11:42:24;7.60;1.00
20174;DHT22;10246;50.620;7.232;2023-02-10T11:44:54;7.70;1.00
20174;DHT22;10246;50.620;7.232;2023-02-10T11:47:21;7.90;1.00
20174;DHT22;10246;50.620;7.232;2023-02-10T11:49:48;7.90;1.00
20174;DHT22;10246;50.620;7.232;2023-02-10T11:52:16;8.00;1.00
20174;DHT22;10246;50.620;7.232;2023-02-10T11:54:44;8.10;1.00
20174;DHT22;10246;50.620;7.232;2023-02-10T11:57:32;8.10;1.00
20174;DHT22;10246;50.620;7.232;2023-02-10T12:00:25;8.20;1.00
20174;DHT22;10246;50.620;7.232;2023-02-10T12:05:52;8.60;1.00
20174;DHT22;10246;50.620;7.232;2023-02-10T12:08:24;8.80;1.00
20174;DHT22;10246;50.620;7.232;2023-02-10T12:10:56;8.80;1.00
20174;DHT22;10246;50.620;7.232;2023-02-10T12:13:32;8.80;1.00
20174;DHT22;10246;50.620;7.232;2023-02-10T12:16:10;8.80;1.00
20174;DHT22;10246;50.620;7.232;2023-02-10T12:18:53;8.70;1.00
20174;DHT22;10246;50.620;7.232;2023-02-10T12:27:21;8.40;1.00
20174;DHT22;10246;50.620;7.232;2023-02-10T12:30:02;8.30;1.00
20174;DHT22;10246;50.620;7.232;2023-02-10T12:32:39;8.40;1.00
20174;DHT22;10246;50.620;7.232;2023-02-10T12:35:30;8.40;1.00
20174;DHT22;10246;50.620;7.232;2023-02-10T12:38:09;8.40;1.00
20174;DHT22;10246;50.620;7.232;2023-02-10T12:40:48;8.30;1.00
20174;DHT22;10246;50.620;7.232;2023-02-10T12:43:34;8.30;1.00
20174;DHT22;10246;50.620;7.232;2023-02-10T12:46:13;8.40;1.00
20174;DHT22;10246;50.620;7.232;2023-02-10T12:48:48;8.40;1.00
20174;DHT22;10246;50.620;7.232;2023-02-10T12:51:26;8.30;1.00
20174;DHT22;10246;50.620;7.232;2023-02-10T12:54:00;8.40;1.00
20174;DHT22;10246;50.620;7.232;2023-02-10T12:56:32;8.40;1.00
20174;DHT22;10246;50.620;7.232;2023-02-10T12:59:02;8.40;1.00
20174;DHT22;10246;50.620;7.232;2023-02-10T13:01:35;8.30;1.00
20174;DHT22;10246;50.620;7.232;2023-02-10T13:04:08;8.40;1.00
20174;DHT22;10246;50.620;7.232;2023-02-10T13:06:42;8.40;1.00
20174;DHT22;10246;50.620;7.232;2023-02-10T13:09:17;8.40;1.00
20174;DHT22;10246;50.620;7.232;2023-02-10T13:11:55;8.50;1.00
20174;DHT22;10246;50.620;7.232;2023-02-10T13:14:26;8.50;1.00
20174;DHT22;10246;50.620;7.232;2023-02-10T13:16:56;8.40;1.00
20174;DHT22;10246;50.620;7.232;2023-02-10T13:19:30;8.40;1.00
20174;DHT22;10246;50.620;7.232;2023-02-10T13:22:02;8.40;1.00
20174;DHT22;10246;50.620;7.232;2023-02-10T13:24:34;8.40;1.00
20174;DHT22;10246;50.620;7.232;2023-02-10T13:27:17;8.30;1.00
20174;DHT22;10246;50.620;7.232;2023-02-10T13:29:53;8.30;1.00
20174;DHT22;10246;50.620;7.232;2023-02-10T13:32:31;8.40;1.00
20174;DHT22;10246;50.620;7.232;2023-02-10T13:35:06;8.50;1.00
20174;DHT22;10246;50.620;7.232;2023-02-10T13:37:37;8.70;1.00
20174;DHT22;10246;50.620;7.232;2023-02-10T13:40:15;8.80;1.00
20174;DHT22;10246;50.620;7.232;2023-02-10T13:42:48;8.90;1.00
20174;DHT22;10246;50.620;7.232;2023-02-10T13:45:17;9.10;1.00
20174;DHT22;10246;50.620;7.232;2023-02-10T13:47:50;9.00;1.00
20174;DHT22;10246;50.620;7.232;2023-02-10T13:50:25;9.10;1.00
20174;DHT22;10246;50.620;7.232;2023-02-10T13:52:54;9.10;1.00
20174;DHT22;10246;50.620;7.232;2023-02-10T13:55:37;9.10;1.00
20174;DHT22;10246;50.620;7.232;2023-02-10T13:58:28;9.10;1.00
20174;DHT22;10246;50.620;7.232;2023-02-10T14:00:56;9.10;1.00
20174;DHT22;10246;50.620;7.232;2023-02-10T14:03:25;9.10;1.00
20174;DHT22;10246;50.620;7.232;2023-02-10T14:05:55;9.10;1.00
20174;DHT22;10246;50.620;7.232;2023-02-10T14:08:28;9.10;1.00
20174;DHT22;10246;50.620;7.232;2023-02-10T14:11:00;9.10;1.00
20174;DHT22;10246;50.620;7.232;2023-02-10T14:13:29;9.00;1.00
20174;DHT22;10246;50.620;7.232;2023-02-10T14:15:59;9.00;1.00
20174;DHT22;10246;50.620;7.232;2023-02-10T14:18:29;9.00;1.00
20174;DHT22;10246;50.620;7.232;2023-02-10T14:20:57;9.00;1.00
20174;DHT22;10246;50.620;7.232;2023-02-10T14:23:25;9.00;1.00
20174;DHT22;10246;50.620;7.232;2023-02-10T14:25:56;9.00;1.00
20174;DHT22;10246;50.620;7.232;2023-02-10T14:28:28;9.10;1.00
20174;DHT22;10246;50.620;7.232;2023-02-10T14:30:57;9.10;1.00
20174;DHT22;10246;50.620;7.232;2023-02-10T14:33:29;9.20;1.00
20174;DHT22;10246;50.620;7.232;2023-02-10T14:35:57;9.20;1.00
20174;DHT22;10246;50.620;7.232;2023-02-10T14:38:27;9.10;1.00
20174;DHT22;10246;50.620;7.232;2023-02-10T14:40:54;9.20;1.00
20174;DHT22;10246;50.620;7.232;2023-02-10T14:43:24;9.20;1.00
20174;DHT22;10246;50.620;7.232;2023-02-10T14:45:54;9.30;1.00
20174;DHT22;10246;50.620;7.232;2023-02-10T14:48:22;9.30;1.00
20174;DHT22;10246;50.620;7.232;2023-02-10T14:50:59;9.30;1.00
20174;DHT22;10246;50.620;7.232;2023-02-10T14:53:26;9.30;1.00
20174;DHT22;10246;50.620;7.232;2023-02-10T14:55:55;9.20;1.00
20174;DHT22;10246;50.620;7.232;2023-02-10T14:58:22;9.10;1.00
20174;DHT22;10246;50.620;7.232;2023-02-10T15:01:02;9.10;1.00
20174;DHT22;10246;50.620;7.232;2023-02-10T15:03:30;9.00;1.00
20174;DHT22;10246;50.620;7.232;2023-02-10T15:05:59;9.00;1.00
20174;DHT22;10246;50.620;7.232;2023-02-10T15:08:32;9.00;1.00
20174;DHT22;10246;50.620;7.232;2023-02-10T15:11:02;9.10;1.00
20174;DHT22;10246;50.620;7.232;2023-02-10T15:13:33;9.10;1.00
20174;DHT22;10246;50.620;7.232;2023-02-10T15:16:02;9.10;1.00
20174;DHT22;10246;50.620;7.232;2023-02-10T15:18:32;9.10;1.00
20174;DHT22;10246;50.620;7.232;2023-02-10T15:21:04;9.10;1.00
20174;DHT22;10246;50.620;7.232;2023-02-10T15:23:32;9.10;1.00
20174;DHT22;10246;50.620;7.232;2023-02-10T15:26:05;9.00;1.00
20174;DHT22;10246;50.620;7.232;2023-02-10T15:28:33;9.10;1.00
20174;DHT22;10246;50.620;7.232;2023-02-10T15:31:03;9.00;1.00
20174;DHT22;10246;50.620;7.232;2023-02-10T15:33:33;9.00;1.00
20174;DHT22;10246;50.620;7.232;2023-02-10T15:36:16;8.90;1.00
20174;DHT22;10246;50.620;7.232;2023-02-10T15:38:45;8.80;1.00
20174;DHT22;10246;50.620;7.232;2023-02-10T15:41:31;8.80;1.00
20174;DHT22;10246;50.620;7.232;2023-02-10T15:43:58;8.70;1.00
20174;DHT22;10246;50.620;7.232;2023-02-10T15:46:26;8.60;1.00
20174;DHT22;10246;50.620;7.232;2023-02-10T15:49:05;8.60;1.00
20174;DHT22;10246;50.620;7.232;2023-02-10T15:51:38;8.50;1.00
20174;DHT22;10246;50.620;7.232;2023-02-10T15:54:05;8.40;1.00
20174;DHT22;10246;50.620;7.232;2023-02-10T15:56:32;8.40;1.00
20174;DHT22;10246;50.620;7.232;2023-02-10T15:58:59;8.30;1.00
20174;DHT22;10246;50.620;7.232;2023-02-10T16:01:26;8.30;1.00
20174;DHT22;10246;50.620;7.232;2023-02-10T16:03:52;8.20;1.00
20174;DHT22;10246;50.620;7.232;2023-02-10T16:06:20;8.10;1.00
20174;DHT22;10246;50.620;7.232;2023-02-10T16:08:49;8.00;1.00
20174;DHT22;10246;50.620;7.232;2023-02-10T16:11:16;7.90;1.00
20174;DHT22;10246;50.620;7.232;2023-02-10T16:13:42;7.80;1.00
20174;DHT22;10246;50.620;7.232;2023-02-10T16:16:13;7.70;1.00
20174;DHT22;10246;50.620;7.232;2023-02-10T16:18:42;7.60;1.00
20174;DHT22;10246;50.620;7.232;2023-02-10T16:21:11;7.60;1.00
20174;DHT22;10246;50.620;7.232;2023-02-10T16:23:39;7.50;1.00
20174;DHT22;10246;50.620;7.232;2023-02-10T16:26:08;7.30;1.00
20174;DHT22;10246;50.620;7.232;2023-02-10T16:28:35;7.20;1.00
20174;DHT22;10246;50.620;7.232;2023-02-10T16:31:02;7.20;1.00
20174;DHT22;10246;50.620;7.232;2023-02-10T16:33:28;7.10;1.00
20174;DHT22;10246;50.620;7.232;2023-02-10T16:35:55;7.10;1.00
20174;DHT22;10246;50.620;7.232;2023-02-10T16:38:22;6.90;1.00